Time;durP1;ratioP1;P1;durP2;ratioP2;P2;SDS_P1;SDS_P2;PMS_P1;PMS_P2;Temp;Humidity;BMP_temperature;BMP_pressure;BME280_temperature;BME280_humidity;BME280_pressure;Samples;Min_cycle;Max_cycle;Signal;HPM_P1;HPM_P2
2023/12/18 00:00:11;;;;;;;10.05;3.30;;;8.70;99.90;;;;;;5022418;28;20041;-75
2023/12/18 00:02:37;;;;;;;5.38;2.22;;;8.60;99.90;;;;;;5024083;28;20438;-76
2023/12/18 00:05:03;;;;;;;5.55;2.33;;;8.70;99.90;;;;;;5011715;28;20055;-75
2023/12/18 00:07:28;;;;;;;4.90;2.78;;;8.60;99.90;;;;;;5023191;28;20478;-76
2023/12/18 00:09:54;;;;;;;6.88;3.25;;;8.60;99.90;;;;;;5013343;28;20068;-76
2023/12/18 00:12:20;;;;;;;7.63;2.90;;;8.60;99.90;;;;;;5011003;28;20045;-76
2023/12/18 00:14:46;;;;;;;3.95;2.25;;;8.70;99.90;;;;;;5025123;28;20045;-76
2023/12/18 00:17:11;;;;;;;8.45;3.15;;;8.70;99.90;;;;;;5014891;28;20137;-78
2023/12/18 00:19:37;;;;;;;6.65;3.28;;;8.60;99.90;;;;;;5028186;28;20041;-74
2023/12/18 00:22:03;;;;;;;10.45;3.10;;;8.60;99.90;;;;;;5020600;28;20052;-75
2023/12/18 00:24:29;;;;;;;4.80;2.40;;;8.70;99.90;;;;;;5036912;28;20120;-75
2023/12/18 00:26:54;;;;;;;5.15;2.88;;;8.60;99.90;;;;;;5026793;28;20098;-76
2023/12/18 00:29:20;;;;;;;7.53;3.33;;;8.70;99.90;;;;;;5015037;28;20498;-76
2023/12/18 00:31:47;;;;;;;4.07;3.22;;;8.70;99.90;;;;;;5021615;28;20477;-76
2023/12/18 00:34:13;;;;;;;3.80;2.80;;;8.70;99.90;;;;;;5018585;28;20060;-76
2023/12/18 00:36:39;;;;;;;6.15;3.03;;;8.70;99.90;;;;;;5024929;28;20041;-76
2023/12/18 00:39:05;;;;;;;4.28;2.63;;;8.70;99.90;;;;;;5024319;28;20048;-76
2023/12/18 00:41:32;;;;;;;10.07;3.97;;;8.70;99.90;;;;;;5010492;28;20041;-76
2023/12/18 00:43:57;;;;;;;7.57;3.28;;;8.70;99.90;;;;;;5029550;28;20486;-76
2023/12/18 00:46:25;;;;;;;4.82;3.15;;;8.70;99.90;;;;;;5029119;28;20047;-76
2023/12/18 00:48:51;;;;;;;3.28;2.40;;;8.70;99.90;;;;;;5024655;28;20537;-76
2023/12/18 00:51:17;;;;;;;6.78;2.40;;;8.70;99.90;;;;;;5021614;28;20042;-76
2023/12/18 00:53:43;;;;;;;8.75;2.78;;;8.70;99.90;;;;;;5023065;28;20041;-76
2023/12/18 00:56:09;;;;;;;5.15;2.85;;;8.70;99.90;;;;;;5014207;28;20045;-76
2023/12/18 00:58:35;;;;;;;9.35;3.33;;;8.70;99.90;;;;;;5023993;28;20052;-76
2023/12/18 01:01:01;;;;;;;3.05;2.20;;;8.80;99.90;;;;;;5022473;28;20050;-76
2023/12/18 01:03:26;;;;;;;4.35;2.50;;;8.70;99.90;;;;;;5025805;28;20037;-75
2023/12/18 01:05:52;;;;;;;4.05;2.30;;;8.70;99.90;;;;;;5019560;28;20045;-76
2023/12/18 01:08:18;;;;;;;7.68;3.25;;;8.80;99.90;;;;;;5020162;28;20041;-75
2023/12/18 01:10:43;;;;;;;4.80;2.95;;;8.70;99.90;;;;;;5023637;28;20033;-75
2023/12/18 01:13:09;;;;;;;4.68;2.42;;;8.80;99.90;;;;;;5012076;28;20084;-75
2023/12/18 01:15:35;;;;;;;7.95;2.33;;;8.80;99.90;;;;;;5026377;28;20128;-75
2023/12/18 01:18:00;;;;;;;5.78;2.67;;;8.80;99.90;;;;;;5012684;28;20041;-76
2023/12/18 01:20:26;;;;;;;4.63;2.45;;;8.80;99.90;;;;;;5001809;28;20123;-75
2023/12/18 01:22:52;;;;;;;9.10;3.15;;;8.80;99.90;;;;;;5010130;28;20481;-75
2023/12/18 01:25:18;;;;;;;8.75;2.53;;;8.80;99.90;;;;;;5026454;28;20397;-76
2023/12/18 01:27:44;;;;;;;5.07;2.40;;;8.90;99.90;;;;;;5010945;28;20045;-76
2023/12/18 01:30:10;;;;;;;7.63;2.13;;;8.80;99.90;;;;;;5023407;28;20050;-76
2023/12/18 01:32:36;;;;;;;3.03;2.42;;;8.80;99.90;;;;;;5027373;28;20056;-75
2023/12/18 01:35:01;;;;;;;5.63;2.28;;;8.90;99.90;;;;;;5025092;28;20041;-75
2023/12/18 01:37:28;;;;;;;7.50;3.13;;;8.90;99.90;;;;;;5026787;28;20033;-76
2023/12/18 01:39:53;;;;;;;4.88;2.38;;;8.80;99.90;;;;;;5023806;28;20055;-76
2023/12/18 01:42:19;;;;;;;4.25;1.83;;;8.90;99.90;;;;;;5023112;28;20037;-76
2023/12/18 01:44:45;;;;;;;4.97;2.67;;;9.00;99.90;;;;;;5025375;28;20040;-75
2023/12/18 01:47:12;;;;;;;7.35;2.28;;;9.00;99.90;;;;;;5005686;28;20041;-76
2023/12/18 01:49:38;;;;;;;8.57;2.55;;;9.00;99.90;;;;;;5021532;28;20041;-75
2023/12/18 01:52:04;;;;;;;6.00;2.15;;;9.00;99.90;;;;;;5019437;28;20586;-75
2023/12/18 01:54:31;;;;;;;4.07;2.42;;;9.00;99.90;;;;;;5039998;28;20339;-76
2023/12/18 01:56:59;;;;;;;7.80;3.08;;;9.00;99.90;;;;;;5004025;28;20168;-76
2023/12/18 01:59:25;;;;;;;3.30;2.15;;;9.00;99.90;;;;;;5038133;28;20041;-76
2023/12/18 02:01:51;;;;;;;3.35;2.08;;;9.00;99.90;;;;;;5019995;28;20048;-76
2023/12/18 02:04:18;;;;;;;4.95;2.13;;;9.00;99.90;;;;;;5025635;28;20061;-75
2023/12/18 02:06:45;;;;;;;7.75;2.50;;;9.00;99.90;;;;;;5030163;28;20057;-76
2023/12/18 02:09:11;;;;;;;4.80;2.72;;;9.10;99.90;;;;;;5021899;28;20124;-76
2023/12/18 02:11:37;;;;;;;3.95;1.48;;;9.10;99.90;;;;;;5021423;28;20064;-76
2023/12/18 02:14:05;;;;;;;7.97;1.88;;;9.10;99.90;;;;;;5038559;28;20511;-75
2023/12/18 02:16:31;;;;;;;3.00;2.30;;;9.10;99.90;;;;;;5004538;28;20041;-75
2023/12/18 02:18:56;;;;;;;6.70;2.55;;;9.10;99.90;;;;;;5037928;28;20689;-75
2023/12/18 02:21:22;;;;;;;4.78;2.63;;;9.10;99.90;;;;;;5021330;28;20033;-75
2023/12/18 02:23:49;;;;;;;10.48;3.13;;;9.10;99.90;;;;;;5023532;28;20120;-75
2023/12/18 02:26:16;;;;;;;4.70;2.85;;;9.10;99.90;;;;;;5020004;28;20037;-75
2023/12/18 02:28:43;;;;;;;5.00;2.30;;;9.10;99.90;;;;;;5021751;28;20055;-76
2023/12/18 02:31:13;;;;;;;9.80;2.72;;;9.10;99.90;;;;;;5038249;28;20115;-75
2023/12/18 02:33:39;;;;;;;10.02;3.05;;;9.10;99.90;;;;;;5023794;28;20401;-75
2023/12/18 02:36:05;;;;;;;8.55;2.55;;;9.10;99.90;;;;;;5014839;28;20044;-75
2023/12/18 02:38:30;;;;;;;8.88;3.03;;;9.10;99.90;;;;;;5019491;28;20049;-75
2023/12/18 02:40:56;;;;;;;6.75;2.60;;;9.10;99.90;;;;;;5025220;28;20032;-75
2023/12/18 02:43:22;;;;;;;5.68;3.10;;;9.10;99.90;;;;;;5023310;28;20069;-75
2023/12/18 02:45:47;;;;;;;6.88;2.13;;;9.10;99.90;;;;;;5016432;28;20091;-75
2023/12/18 02:48:13;;;;;;;3.70;2.17;;;9.10;99.90;;;;;;5040709;28;20119;-76
2023/12/18 02:50:39;;;;;;;5.72;2.45;;;9.10;99.90;;;;;;5026533;28;20607;-75
2023/12/18 02:53:04;;;;;;;5.78;2.28;;;9.10;99.90;;;;;;5020583;28;20068;-76
2023/12/18 02:55:30;;;;;;;7.20;3.35;;;9.10;99.90;;;;;;5026334;28;20030;-76
2023/12/18 02:57:56;;;;;;;3.55;2.20;;;9.10;99.90;;;;;;5024683;28;20055;-76
2023/12/18 03:00:22;;;;;;;7.28;2.20;;;9.10;99.90;;;;;;5012026;28;20032;-76
2023/12/18 03:02:47;;;;;;;7.80;2.25;;;9.10;99.90;;;;;;5039683;28;20041;-76
2023/12/18 03:05:14;;;;;;;10.82;2.92;;;9.10;99.90;;;;;;5022155;28;20077;-76
2023/12/18 03:07:40;;;;;;;3.47;2.40;;;9.20;99.90;;;;;;5027173;28;20409;-76
2023/12/18 03:10:06;;;;;;;2.03;1.35;;;9.10;99.90;;;;;;5025760;28;20057;-76
2023/12/18 03:12:32;;;;;;;4.07;3.05;;;9.10;99.90;;;;;;5019366;28;20111;-76
2023/12/18 03:14:57;;;;;;;3.80;2.45;;;9.10;99.90;;;;;;5029245;28;20053;-76
2023/12/18 03:17:23;;;;;;;3.88;1.70;;;9.10;99.90;;;;;;5003495;28;20068;-76
2023/12/18 03:19:49;;;;;;;5.25;2.92;;;9.10;99.90;;;;;;5026436;28;20082;-75
2023/12/18 03:22:14;;;;;;;3.28;2.70;;;9.10;99.90;;;;;;5025993;28;20033;-75
2023/12/18 03:24:42;;;;;;;6.20;2.88;;;9.10;99.90;;;;;;5026958;28;20029;-75
2023/12/18 03:27:08;;;;;;;3.78;2.65;;;9.10;99.90;;;;;;5025504;28;20421;-75
2023/12/18 03:29:34;;;;;;;3.72;2.65;;;9.10;99.90;;;;;;5014960;28;20497;-75
2023/12/18 03:32:00;;;;;;;4.18;2.33;;;9.20;99.90;;;;;;5020241;28;20073;-75
2023/12/18 03:34:26;;;;;;;7.10;2.63;;;9.20;99.90;;;;;;5022707;28;20079;-75
2023/12/18 03:36:52;;;;;;;5.43;3.30;;;9.20;99.90;;;;;;5026724;28;20426;-75
2023/12/18 03:39:18;;;;;;;9.48;2.95;;;9.20;99.90;;;;;;5027506;28;20400;-75
2023/12/18 03:41:43;;;;;;;6.05;2.58;;;9.20;99.90;;;;;;5014461;28;20037;-75
2023/12/18 03:44:09;;;;;;;8.57;2.28;;;9.20;99.90;;;;;;5026711;28;20119;-75
2023/12/18 03:46:35;;;;;;;6.65;2.55;;;9.20;99.90;;;;;;5028630;28;20033;-76
2023/12/18 03:49:01;;;;;;;9.10;2.75;;;9.20;99.90;;;;;;5009275;28;20513;-75
2023/12/18 03:51:26;;;;;;;3.28;2.03;;;9.20;99.90;;;;;;5022892;28;20390;-75
2023/12/18 03:53:52;;;;;;;3.10;1.90;;;9.20;99.90;;;;;;5019821;28;20207;-75
2023/12/18 03:56:18;;;;;;;3.75;2.50;;;9.20;99.90;;;;;;5026366;28;20120;-75
2023/12/18 03:58:43;;;;;;;5.72;2.75;;;9.20;99.90;;;;;;5022285;28;20106;-75
2023/12/18 04:01:09;;;;;;;4.18;1.85;;;9.20;99.90;;;;;;5030147;28;20036;-75
2023/12/18 04:03:35;;;;;;;4.70;2.20;;;9.20;99.90;;;;;;5024643;28;20048;-75
2023/12/18 04:06:01;;;;;;;8.75;2.65;;;9.20;99.90;;;;;;5024140;28;20505;-75
2023/12/18 04:08:27;;;;;;;3.92;2.40;;;9.20;99.90;;;;;;5006257;28;20057;-75
2023/12/18 04:10:52;;;;;;;6.80;2.20;;;9.20;99.90;;;;;;5019847;28;20041;-75
2023/12/18 04:13:18;;;;;;;2.00;1.75;;;9.20;99.90;;;;;;5021556;28;20041;-75
2023/12/18 04:15:44;;;;;;;8.77;2.13;;;9.20;99.90;;;;;;5024964;28;20046;-75
2023/12/18 04:18:10;;;;;;;8.07;2.75;;;9.20;99.90;;;;;;5031731;28;20037;-75
2023/12/18 04:20:35;;;;;;;8.95;2.42;;;9.20;99.90;;;;;;5019688;28;20046;-75
2023/12/18 04:23:01;;;;;;;5.07;2.25;;;9.20;99.90;;;;;;5017905;28;20119;-75
2023/12/18 04:25:27;;;;;;;6.45;2.90;;;9.20;99.90;;;;;;5018041;28;20107;-76
2023/12/18 04:27:53;;;;;;;4.85;2.30;;;9.20;99.90;;;;;;5036816;28;20405;-76
2023/12/18 04:30:18;;;;;;;4.75;2.22;;;9.20;99.90;;;;;;5023352;28;20046;-75
2023/12/18 04:32:44;;;;;;;4.10;2.03;;;9.20;99.90;;;;;;5022020;28;20054;-75
2023/12/18 04:35:10;;;;;;;4.82;2.08;;;9.20;99.90;;;;;;5023148;28;20042;-75
2023/12/18 04:37:35;;;;;;;5.30;2.22;;;9.30;99.90;;;;;;5021041;28;20091;-75
2023/12/18 04:40:03;;;;;;;2.33;1.75;;;9.30;99.90;;;;;;5022193;28;20056;-76
2023/12/18 04:42:29;;;;;;;12.50;2.58;;;9.20;99.90;;;;;;5022320;28;20045;-75
2023/12/18 04:44:55;;;;;;;5.63;2.50;;;9.20;99.90;;;;;;5020529;28;20511;-75
2023/12/18 04:47:21;;;;;;;2.33;1.52;;;9.30;99.90;;;;;;5018243;28;20034;-75
2023/12/18 04:49:47;;;;;;;3.88;2.40;;;9.20;99.90;;;;;;5017994;28;20124;-75
2023/12/18 04:52:13;;;;;;;3.60;2.08;;;9.30;99.90;;;;;;5021279;28;20290;-75
2023/12/18 04:54:38;;;;;;;7.47;2.63;;;9.30;99.90;;;;;;5011635;28;20053;-75
2023/12/18 04:57:04;;;;;;;5.75;2.55;;;9.30;99.90;;;;;;5019355;28;20045;-75
2023/12/18 04:59:30;;;;;;;6.55;1.85;;;9.30;99.90;;;;;;5021598;28;20049;-76
2023/12/18 05:01:56;;;;;;;3.47;2.08;;;9.30;99.90;;;;;;5012825;28;20045;-76
2023/12/18 05:04:23;;;;;;;5.25;2.70;;;9.30;99.90;;;;;;5023829;28;20038;-75
2023/12/18 05:06:49;;;;;;;5.80;2.85;;;9.30;99.90;;;;;;5029591;28;20107;-76
2023/12/18 05:09:15;;;;;;;4.57;2.70;;;9.30;99.90;;;;;;5039954;28;20497;-75
2023/12/18 05:11:41;;;;;;;4.82;1.65;;;9.20;99.90;;;;;;5023345;28;20044;-75
2023/12/18 05:14:08;;;;;;;2.67;1.52;;;9.20;99.90;;;;;;5026648;28;20095;-75
2023/12/18 05:16:34;;;;;;;6.07;2.28;;;9.30;99.90;;;;;;5025186;28;20042;-76
2023/12/18 05:19:00;;;;;;;3.28;2.25;;;9.30;99.90;;;;;;5024383;28;20042;-76
2023/12/18 05:21:26;;;;;;;5.28;2.40;;;9.30;99.90;;;;;;5024562;28;20068;-76
2023/12/18 05:23:54;;;;;;;7.22;1.77;;;9.20;99.90;;;;;;5012740;28;20038;-76
2023/12/18 05:26:19;;;;;;;5.82;3.15;;;9.30;99.90;;;;;;5019241;28;20044;-75
2023/12/18 05:28:45;;;;;;;5.25;2.35;;;9.20;99.90;;;;;;5015218;28;20041;-76
2023/12/18 05:31:11;;;;;;;1.85;1.63;;;9.20;99.90;;;;;;5022678;28;20069;-76
2023/12/18 05:33:37;;;;;;;1.98;1.58;;;9.30;99.90;;;;;;5028200;28;20051;-75
2023/12/18 05:36:03;;;;;;;2.90;1.98;;;9.30;99.90;;;;;;5023806;28;20048;-76
2023/12/18 05:38:29;;;;;;;5.45;1.92;;;9.30;99.90;;;;;;5018685;28;20060;-76
2023/12/18 05:40:54;;;;;;;7.13;2.03;;;9.30;99.90;;;;;;5042908;28;20061;-76
2023/12/18 05:43:20;;;;;;;2.75;2.03;;;9.30;99.90;;;;;;5026152;28;20049;-76
2023/12/18 05:45:46;;;;;;;3.58;2.15;;;9.30;99.90;;;;;;5029012;28;20033;-75
2023/12/18 05:48:11;;;;;;;6.80;2.55;;;9.30;99.90;;;;;;5034308;28;20033;-75
2023/12/18 05:50:37;;;;;;;2.90;1.60;;;9.30;99.90;;;;;;5026521;28;20033;-76
2023/12/18 05:53:03;;;;;;;2.40;1.70;;;9.30;99.90;;;;;;5008970;28;20467;-75
2023/12/18 05:55:29;;;;;;;2.92;2.00;;;9.30;99.90;;;;;;5021314;28;20095;-76
2023/12/18 05:57:54;;;;;;;4.50;2.33;;;9.30;99.90;;;;;;5019218;28;20041;-76
2023/12/18 06:00:20;;;;;;;2.78;1.40;;;9.30;99.90;;;;;;5030768;28;20048;-76
2023/12/18 06:02:46;;;;;;;4.85;2.63;;;9.30;99.90;;;;;;5029269;28;20044;-76
2023/12/18 06:05:12;;;;;;;3.58;2.40;;;9.30;99.90;;;;;;5027051;28;20381;-76
2023/12/18 06:07:39;;;;;;;4.22;1.90;;;9.30;99.90;;;;;;5021890;28;20047;-76
2023/12/18 06:10:05;;;;;;;2.53;1.48;;;9.40;99.90;;;;;;5030230;28;20097;-76
2023/12/18 06:12:31;;;;;;;3.90;2.90;;;9.30;99.90;;;;;;5017328;28;20048;-76
2023/12/18 06:14:57;;;;;;;5.95;2.05;;;9.40;99.90;;;;;;5016524;28;20048;-76
2023/12/18 06:17:23;;;;;;;4.97;2.30;;;9.30;99.90;;;;;;5035358;28;20048;-77
2023/12/18 06:19:49;;;;;;;8.68;2.95;;;9.30;99.90;;;;;;5026111;28;20056;-76
2023/12/18 06:22:14;;;;;;;4.45;2.85;;;9.30;99.90;;;;;;5030341;28;20092;-76
2023/12/18 06:24:40;;;;;;;3.63;1.55;;;9.30;99.90;;;;;;5025166;28;20037;-76
2023/12/18 06:27:06;;;;;;;7.47;2.55;;;9.30;99.90;;;;;;5033494;28;20045;-76
2023/12/18 06:29:32;;;;;;;6.20;1.92;;;9.30;99.90;;;;;;5028266;28;20044;-76
2023/12/18 06:31:58;;;;;;;2.63;1.83;;;9.30;99.90;;;;;;5025507;28;20041;-76
2023/12/18 06:34:24;;;;;;;1.83;1.42;;;9.30;99.90;;;;;;5029620;28;20408;-76
2023/12/18 06:36:49;;;;;;;5.40;1.88;;;9.30;99.90;;;;;;5033223;28;20040;-76
2023/12/18 06:39:15;;;;;;;2.50;1.75;;;9.40;99.90;;;;;;5014077;28;20038;-76
2023/12/18 06:41:41;;;;;;;4.32;2.38;;;9.30;99.90;;;;;;5014253;28;20041;-76
2023/12/18 06:44:06;;;;;;;4.38;2.03;;;9.40;99.90;;;;;;5025162;28;20068;-75
2023/12/18 06:46:34;;;;;;;6.07;2.95;;;9.30;99.90;;;;;;5016876;28;20040;-76
2023/12/18 06:49:00;;;;;;;3.95;2.53;;;9.30;99.90;;;;;;5022187;28;20037;-77
2023/12/18 06:51:26;;;;;;;8.38;2.35;;;9.30;99.90;;;;;;5041421;28;20106;-76
2023/12/18 06:53:52;;;;;;;4.47;2.28;;;9.40;99.90;;;;;;5028385;28;20308;-76
2023/12/18 06:56:17;;;;;;;7.53;2.65;;;9.40;99.90;;;;;;5026543;28;20051;-76
2023/12/18 06:58:43;;;;;;;4.10;2.55;;;9.40;99.90;;;;;;5013146;28;20099;-75
2023/12/18 07:01:09;;;;;;;3.03;2.17;;;9.40;99.90;;;;;;5030224;28;20049;-76
2023/12/18 07:03:35;;;;;;;3.67;2.20;;;9.40;99.90;;;;;;5026896;28;20490;-75
2023/12/18 07:06:02;;;;;;;7.05;2.55;;;9.40;99.90;;;;;;5025252;28;20053;-76
2023/12/18 07:08:29;;;;;;;5.38;2.65;;;9.40;99.90;;;;;;5025597;28;20033;-76
2023/12/18 07:10:57;;;;;;;3.38;2.03;;;9.40;99.90;;;;;;5024790;28;20045;-76
2023/12/18 07:13:24;;;;;;;4.57;2.10;;;9.40;99.90;;;;;;5023794;28;20069;-75
2023/12/18 07:15:50;;;;;;;6.68;2.58;;;9.40;99.90;;;;;;5031048;28;20048;-74
2023/12/18 07:18:17;;;;;;;3.05;2.03;;;9.40;99.90;;;;;;5030921;28;20041;-76
2023/12/18 07:20:43;;;;;;;6.20;2.30;;;9.40;99.90;;;;;;5030342;28;20094;-75
2023/12/18 07:23:10;;;;;;;4.85;1.50;;;9.40;99.90;;;;;;5026778;28;20037;-75
2023/12/18 07:25:36;;;;;;;6.75;2.78;;;9.40;99.90;;;;;;5027615;28;20025;-75
2023/12/18 07:28:01;;;;;;;7.57;2.35;;;9.40;99.90;;;;;;5028292;28;20091;-75
2023/12/18 07:30:27;;;;;;;7.13;2.13;;;9.40;99.90;;;;;;5024808;28;20128;-76
2023/12/18 07:32:53;;;;;;;5.00;2.30;;;9.40;99.90;;;;;;5026592;28;20156;-77
2023/12/18 07:35:18;;;;;;;12.93;3.70;;;9.40;99.90;;;;;;5022439;28;20099;-76
2023/12/18 07:37:44;;;;;;;4.95;2.30;;;9.40;99.90;;;;;;5012449;28;20088;-76
2023/12/18 07:40:10;;;;;;;3.58;2.60;;;9.40;99.90;;;;;;5021633;28;20509;-76
2023/12/18 07:42:36;;;;;;;4.32;2.47;;;9.40;99.90;;;;;;5029485;28;20052;-76
2023/12/18 07:45:02;;;;;;;5.25;2.03;;;9.40;99.90;;;;;;5022876;28;20029;-76
2023/12/18 07:47:28;;;;;;;4.20;2.60;;;9.40;99.90;;;;;;5020122;28;20128;-76
2023/12/18 07:49:54;;;;;;;8.55;3.20;;;9.40;99.90;;;;;;5039474;28;20544;-76
2023/12/18 07:52:19;;;;;;;8.57;2.85;;;9.40;99.90;;;;;;5011333;28;20041;-76
2023/12/18 07:54:45;;;;;;;4.93;2.78;;;9.40;99.90;;;;;;5038515;28;20358;-76
2023/12/18 07:57:11;;;;;;;5.10;2.78;;;9.40;99.90;;;;;;5029599;28;20461;-76
2023/12/18 07:59:39;;;;;;;8.15;3.05;;;9.40;99.90;;;;;;5020442;28;20044;-76
2023/12/18 08:02:07;;;;;;;9.10;3.13;;;9.40;99.90;;;;;;5014579;28;20050;-76
2023/12/18 08:04:32;;;;;;;6.07;3.03;;;9.40;99.90;;;;;;5038494;28;20048;-76
2023/12/18 08:06:58;;;;;;;6.93;3.33;;;9.40;99.90;;;;;;5023750;28;20497;-76
2023/12/18 08:09:26;;;;;;;11.23;4.18;;;9.40;99.90;;;;;;5020029;28;20052;-78
2023/12/18 08:11:52;;;;;;;2.80;2.30;;;9.40;99.90;;;;;;5020623;28;20045;-76
2023/12/18 08:14:18;;;;;;;7.18;2.30;;;9.30;99.90;;;;;;5020345;28;20124;-76
2023/12/18 08:16:43;;;;;;;12.88;3.35;;;9.40;99.90;;;;;;5027060;28;20520;-76
2023/12/18 08:19:09;;;;;;;6.45;3.50;;;9.30;99.90;;;;;;5023898;28;20056;-76
2023/12/18 08:21:35;;;;;;;3.38;2.67;;;9.40;99.90;;;;;;5026520;28;20386;-76
2023/12/18 08:24:01;;;;;;;4.30;3.03;;;9.30;99.90;;;;;;5002311;28;20041;-76
2023/12/18 08:26:26;;;;;;;6.68;3.15;;;9.30;99.90;;;;;;5020393;28;20694;-76
2023/12/18 08:28:53;;;;;;;4.65;3.60;;;9.30;99.90;;;;;;5012678;28;20047;-76
2023/12/18 08:31:18;;;;;;;5.75;2.85;;;9.30;99.90;;;;;;5024596;28;20096;-76
2023/12/18 08:33:44;;;;;;;4.88;2.90;;;9.40;99.90;;;;;;5029074;28;20041;-76
2023/12/18 08:36:10;;;;;;;4.90;3.17;;;9.40;99.90;;;;;;5036634;28;20055;-76
2023/12/18 08:38:36;;;;;;;4.50;2.47;;;9.40;99.90;;;;;;5025934;28;20037;-76
2023/12/18 08:41:01;;;;;;;9.70;2.83;;;9.40;99.90;;;;;;5026961;28;20049;-76
2023/12/18 08:43:27;;;;;;;5.97;3.78;;;9.40;99.90;;;;;;5042278;28;20615;-76
2023/12/18 08:45:53;;;;;;;4.65;2.80;;;9.40;99.90;;;;;;5037962;28;20040;-76
2023/12/18 08:48:18;;;;;;;8.45;3.33;;;9.40;99.90;;;;;;5024962;28;20032;-77
2023/12/18 08:50:44;;;;;;;6.35;3.08;;;9.40;99.90;;;;;;5021878;28;20045;-76
2023/12/18 08:53:10;;;;;;;8.35;3.38;;;9.40;99.90;;;;;;5025056;28;20076;-75
2023/12/18 08:55:39;;;;;;;5.72;3.22;;;9.40;99.90;;;;;;5022324;28;20060;-77
2023/12/18 08:58:11;;;;;;;4.80;2.75;;;9.50;99.90;;;;;;5020513;28;20041;-76
2023/12/18 09:00:37;;;;;;;6.07;2.83;;;9.50;99.90;;;;;;5019065;28;20045;-75
2023/12/18 09:03:04;;;;;;;7.05;3.10;;;9.50;99.90;;;;;;5010637;28;20564;-75
2023/12/18 09:05:31;;;;;;;9.10;3.47;;;9.50;99.90;;;;;;5019803;28;20456;-76
2023/12/18 09:07:57;;;;;;;5.18;3.25;;;9.50;99.90;;;;;;5015358;28;20164;-76
2023/12/18 09:10:23;;;;;;;4.43;3.00;;;9.50;99.90;;;;;;5021177;28;20037;-76
2023/12/18 09:12:51;;;;;;;7.15;3.95;;;9.50;99.90;;;;;;5020771;28;20041;-76
2023/12/18 09:15:16;;;;;;;4.68;3.00;;;9.50;99.90;;;;;;5020486;28;20159;-76
2023/12/18 09:17:43;;;;;;;6.43;4.13;;;9.50;99.90;;;;;;5023450;28;20132;-75
2023/12/18 09:20:09;;;;;;;11.35;3.47;;;9.50;99.90;;;;;;5014768;28;20424;-75
2023/12/18 09:22:36;;;;;;;5.20;3.13;;;9.50;99.90;;;;;;5034016;28;20264;-76
2023/12/18 09:25:02;;;;;;;10.07;3.33;;;9.50;99.90;;;;;;5026626;28;20038;-77
2023/12/18 09:27:28;;;;;;;7.65;3.58;;;9.50;99.90;;;;;;5030748;28;20509;-77
2023/12/18 09:29:53;;;;;;;6.00;4.03;;;9.50;99.90;;;;;;5020256;28;20041;-76
2023/12/18 09:32:19;;;;;;;5.22;3.15;;;9.60;99.90;;;;;;5034625;28;20036;-77
2023/12/18 09:34:45;;;;;;;7.93;3.80;;;9.60;99.90;;;;;;5030210;28;20059;-76
2023/12/18 09:37:11;;;;;;;5.43;3.00;;;9.60;99.90;;;;;;5017060;28;20037;-77
2023/12/18 09:39:39;;;;;;;7.00;3.90;;;9.60;99.90;;;;;;5030049;28;20036;-77
2023/12/18 09:42:05;;;;;;;8.68;3.63;;;9.70;99.90;;;;;;5021762;28;20072;-77
2023/12/18 09:44:32;;;;;;;4.07;2.45;;;9.70;99.90;;;;;;5029394;28;20033;-77
2023/12/18 09:47:01;;;;;;;8.52;4.20;;;9.70;99.90;;;;;;5032205;28;20409;-77
2023/12/18 09:49:27;;;;;;;5.03;2.95;;;9.70;99.90;;;;;;5022394;28;20378;-77
2023/12/18 09:51:54;;;;;;;9.20;4.30;;;9.70;99.90;;;;;;5006038;28;20044;-77
2023/12/18 09:54:21;;;;;;;9.68;3.15;;;9.80;99.90;;;;;;5019299;28;20357;-77
2023/12/18 09:56:48;;;;;;;8.35;4.60;;;9.80;99.90;;;;;;5006693;28;20033;-77
2023/12/18 09:59:17;;;;;;;6.18;4.43;;;9.80;99.90;;;;;;5020024;28;20508;-77
2023/12/18 10:01:45;;;;;;;6.35;4.07;;;9.80;99.90;;;;;;5011742;28;20064;-77
2023/12/18 10:04:12;;;;;;;7.85;3.65;;;9.90;99.90;;;;;;5023744;28;20121;-77
2023/12/18 10:06:38;;;;;;;5.40;4.00;;;9.80;99.90;;;;;;5020132;28;20053;-77
2023/12/18 10:09:12;;;;;;;6.30;3.80;;;9.90;99.90;;;;;;5019519;28;20495;-76
2023/12/18 10:11:38;;;;;;;6.03;3.78;;;9.90;99.90;;;;;;5027861;28;20052;-75
2023/12/18 10:14:04;;;;;;;11.43;4.30;;;9.90;99.90;;;;;;5021736;28;20045;-76
2023/12/18 10:16:31;;;;;;;7.72;4.03;;;9.90;99.90;;;;;;5030006;28;20044;-75
2023/12/18 10:18:57;;;;;;;7.32;3.63;;;9.90;99.90;;;;;;5013069;28;20069;-76
2023/12/18 10:21:24;;;;;;;5.55;3.88;;;9.90;99.90;;;;;;5022732;28;20040;-76
2023/12/18 10:23:55;;;;;;;6.90;3.67;;;9.90;99.90;;;;;;5013720;28;20037;-76
2023/12/18 10:26:21;;;;;;;6.65;3.53;;;10.00;99.90;;;;;;5026068;28;20037;-77
2023/12/18 10:28:50;;;;;;;10.02;3.38;;;9.90;99.90;;;;;;5015553;28;20033;-76
2023/12/18 10:31:17;;;;;;;5.40;3.42;;;10.00;99.90;;;;;;5010931;28;20405;-76
2023/12/18 10:33:43;;;;;;;8.07;3.47;;;10.00;99.90;;;;;;5025990;28;20068;-77
2023/12/18 10:36:09;;;;;;;6.57;3.97;;;10.00;99.90;;;;;;5009798;28;20085;-77
2023/12/18 10:38:38;;;;;;;10.82;4.55;;;9.90;99.90;;;;;;5012662;28;20041;-76
2023/12/18 10:41:04;;;;;;;4.82;3.47;;;10.00;99.90;;;;;;5007592;28;20047;-76
2023/12/18 10:43:35;;;;;;;6.63;3.67;;;10.00;99.90;;;;;;5027011;28;20040;-76
2023/12/18 10:46:03;;;;;;;5.65;3.75;;;10.00;99.90;;;;;;5026624;28;20128;-77
2023/12/18 10:48:29;;;;;;;5.80;3.53;;;10.00;99.90;;;;;;5027097;28;20499;-76
2023/12/18 10:50:56;;;;;;;7.43;4.20;;;10.00;99.90;;;;;;5024535;28;20049;-76
2023/12/18 10:53:24;;;;;;;4.55;3.30;;;10.10;99.90;;;;;;5026989;28;20429;-76
2023/12/18 10:55:52;;;;;;;6.95;3.85;;;10.10;99.90;;;;;;5041292;28;20379;-77
2023/12/18 10:58:18;;;;;;;9.38;4.03;;;10.00;99.90;;;;;;5029329;28;20100;-76
2023/12/18 11:00:44;;;;;;;5.47;3.55;;;10.10;99.90;;;;;;5028927;28;20091;-78
2023/12/18 11:03:12;;;;;;;7.55;4.72;;;10.10;99.90;;;;;;5027658;28;20124;-77
2023/12/18 11:05:40;;;;;;;5.93;3.78;;;10.10;99.90;;;;;;5025471;28;20050;-77
2023/12/18 11:08:06;;;;;;;5.50;3.75;;;10.10;99.90;;;;;;5028544;28;20049;-77
2023/12/18 11:10:33;;;;;;;8.57;4.43;;;10.10;99.90;;;;;;5030274;28;20055;-77
2023/12/18 11:13:28;;;;;;;6.55;3.63;;;10.10;99.90;;;;;;5025039;28;20516;-76
2023/12/18 11:16:17;;;;;;;;;;;10.10;99.90;;;;;;5015139;28;20042;-75
2023/12/18 11:19:03;;;;;;;6.90;4.53;;;10.10;99.90;;;;;;5017225;28;19924;-76
2023/12/18 11:21:28;;;;;;;7.35;4.20;;;10.20;99.90;;;;;;5013010;28;20052;-77
2023/12/18 11:23:54;;;;;;;15.45;4.43;;;10.20;99.90;;;;;;5026897;28;20037;-77
2023/12/18 11:26:21;;;;;;;6.30;3.97;;;10.20;99.90;;;;;;5021184;28;20051;-77
2023/12/18 11:28:48;;;;;;;9.30;3.88;;;10.20;99.90;;;;;;5027967;28;20967;-77
2023/12/18 11:31:20;;;;;;;7.97;3.65;;;10.30;99.90;;;;;;5045189;28;20048;-77
2023/12/18 11:34:07;;;;;;;12.52;3.85;;;10.30;99.90;;;;;;5019944;28;20390;-76
2023/12/18 11:36:33;;;;;;;5.20;3.58;;;10.30;99.90;;;;;;5010534;28;20049;-76
2023/12/18 11:38:58;;;;;;;6.43;3.28;;;10.30;99.90;;;;;;5023501;28;20675;-77
2023/12/18 11:41:47;;;;;;;12.68;4.85;;;10.40;99.90;;;;;;5024648;28;20133;-77
2023/12/18 11:44:14;;;;;;;9.55;4.75;;;10.30;99.90;;;;;;5045418;28;20444;-76
2023/12/18 11:46:41;;;;;;;10.80;5.25;;;10.40;99.90;;;;;;5042005;28;20033;-77
2023/12/18 11:49:08;;;;;;;12.07;4.93;;;10.50;99.90;;;;;;5030315;28;20440;-77
2023/12/18 11:51:34;;;;;;;5.07;3.92;;;10.50;99.90;;;;;;5023978;28;20178;-76
2023/12/18 11:54:01;;;;;;;6.32;4.30;;;10.50;99.90;;;;;;5027454;28;20059;-77
2023/12/18 11:56:28;;;;;;;5.88;3.30;;;10.50;99.90;;;;;;5022624;28;20041;-77
2023/12/18 11:58:54;;;;;;;6.70;4.35;;;10.50;99.90;;;;;;5028908;28;20052;-77
2023/12/18 12:01:20;;;;;;;8.45;4.05;;;10.50;99.90;;;;;;5011931;28;20094;-76
2023/12/18 12:03:46;;;;;;;7.80;3.35;;;10.50;99.90;;;;;;5027969;28;20052;-76
2023/12/18 12:06:14;;;;;;;6.93;3.85;;;10.40;99.90;;;;;;5011921;28;20053;-77
2023/12/18 12:08:49;;;;;;;9.05;4.43;;;10.40;99.90;;;;;;5015489;28;20076;-76
2023/12/18 12:11:15;;;;;;;6.10;3.65;;;10.40;99.90;;;;;;5026658;28;20029;-77
2023/12/18 12:13:41;;;;;;;4.55;3.60;;;10.40;99.90;;;;;;5024987;28;20049;-76
2023/12/18 12:16:07;;;;;;;5.75;4.10;;;10.30;99.90;;;;;;5025733;28;20049;-76
2023/12/18 12:18:50;;;;;;;5.85;4.05;;;10.30;99.90;;;;;;5024296;28;20565;-76
2023/12/18 12:21:17;;;;;;;6.60;4.03;;;10.20;99.90;;;;;;5029205;28;20044;-76
2023/12/18 12:23:46;;;;;;;8.40;4.15;;;10.20;99.90;;;;;;5013280;28;20116;-76
2023/12/18 12:26:12;;;;;;;8.15;3.75;;;10.20;99.90;;;;;;5026517;28;20083;-77
2023/12/18 12:28:40;;;;;;;5.20;3.92;;;10.20;99.90;;;;;;5005842;28;20468;-77
2023/12/18 12:31:06;;;;;;;8.90;3.05;;;10.20;99.90;;;;;;5030034;28;20108;-76
2023/12/18 12:33:42;;;;;;;5.40;3.25;;;10.20;99.90;;;;;;5023913;28;20043;-77
2023/12/18 12:36:08;;;;;;;7.47;4.80;;;10.20;99.90;;;;;;5027760;28;20056;-77
2023/12/18 12:38:39;;;;;;;14.00;4.20;;;10.20;99.90;;;;;;5025414;28;20127;-77
2023/12/18 12:41:05;;;;;;;7.32;3.25;;;10.10;99.90;;;;;;5024524;28;20128;-76
2023/12/18 12:43:31;;;;;;;7.22;3.92;;;10.10;99.90;;;;;;5020057;28;20041;-76
2023/12/18 12:45:57;;;;;;;4.35;3.15;;;10.20;99.90;;;;;;5021894;28;20542;-77
2023/12/18 12:48:23;;;;;;;5.55;3.28;;;10.10;99.90;;;;;;5019989;28;20076;-76
2023/12/18 12:50:50;;;;;;;12.90;4.90;;;10.10;99.90;;;;;;5027742;28;20044;-77